Time;durP1;ratioP1;P1;durP2;ratioP2;P2;SDS_P1;SDS_P2;PMS_P1;PMS_P2;Temp;Humidity;BMP_temperature;BMP_pressure;BME280_temperature;BME280_humidity;BME280_pressure;Samples;Min_cycle;Max_cycle;Signal;HPM_P1;HPM_P2
2022/05/10 00:02:36;;;;;;;5.47;4.03;;;18.50;99.90;;;;;;5123812;27;20492;-81
2022/05/10 00:05:15;;;;;;;5.60;4.20;;;18.50;99.90;;;;;;5148172;27;20046;-81
2022/05/10 00:07:49;;;;;;;8.05;4.32;;;18.50;99.90;;;;;;5139065;27;20050;-81
2022/05/10 00:10:17;;;;;;;8.05;4.25;;;18.40;99.90;;;;;;5128178;27;20091;-82
2022/05/10 00:12:54;;;;;;;6.15;4.50;;;18.50;99.90;;;;;;5131906;27;20086;-81
2022/05/10 00:15:33;;;;;;;6.90;4.38;;;18.50;99.90;;;;;;5133588;27;20054;-80
2022/05/10 00:17:59;;;;;;;5.70;4.05;;;18.50;99.90;;;;;;5132796;27;20050;-81
2022/05/10 00:20:40;;;;;;;9.27;4.72;;;18.40;99.90;;;;;;5131396;27;20075;-81
2022/05/10 00:23:22;;;;;;;5.65;4.53;;;18.50;99.90;;;;;;5148600;27;20042;-79
2022/05/10 00:26:18;;;;;;;7.88;4.78;;;18.90;99.90;;;;;;5143931;27;20602;-80
2022/05/10 00:28:52;;;;;;;11.10;5.15;;;18.40;99.90;;;;;;5143569;27;20082;-80
2022/05/10 00:31:42;;;;;;;8.85;5.30;;;18.40;99.90;;;;;;5128167;27;20095;-80
2022/05/10 00:34:23;;;;;;;6.55;5.03;;;18.40;99.90;;;;;;5127488;27;20097;-80
2022/05/10 00:36:52;;;;;;;7.22;4.60;;;18.30;99.90;;;;;;5130019;27;20050;-81
2022/05/10 00:39:29;;;;;;;7.85;4.65;;;18.30;99.90;;;;;;5126981;27;20054;-80
2022/05/10 00:42:24;;;;;;;7.32;5.15;;;18.20;99.90;;;;;;5127672;27;20543;-80
2022/05/10 00:45:09;;;;;;;8.38;5.57;;;17.90;99.90;;;;;;5140140;27;20059;-81
2022/05/10 00:48:40;;;;;;;6.85;4.93;;;18.10;99.90;;;;;;5122681;27;20049;-80
2022/05/10 00:51:54;;;;;;;7.80;5.03;;;18.20;99.90;;;;;;5050958;28;21301;-80
2022/05/10 00:54:49;;;;;;;;;;;;;;;;;;;;;
2022/05/10 00:57:51;;;;;;;8.27;5.13;;;18.00;99.90;;;;;;5131832;27;39571;-80
2022/05/10 01:00:48;;;;;;;6.50;4.25;;;18.00;99.90;;;;;;5128566;27;20046;-80
2022/05/10 01:03:46;;;;;;;7.07;4.70;;;18.00;99.90;;;;;;5121149;27;20140;-80
2022/05/10 01:06:46;;;;;;;7.13;4.82;;;18.10;99.90;;;;;;5123214;27;20062;-80
2022/05/10 01:09:33;;;;;;;8.25;5.57;;;18.00;99.90;;;;;;5128738;27;20516;-79
2022/05/10 01:12:46;;;;;;;6.28;4.63;;;18.10;99.90;;;;;;5128300;27;20476;-80
2022/05/10 01:18:52;;;;;;;7.82;6.20;;;17.90;99.90;;;;;;5078320;28;21097;-80
2022/05/10 01:22:05;;;;;;;7.32;4.88;;;18.00;99.90;;;;;;5128758;27;20098;-80
2022/05/10 01:25:08;;;;;;;10.52;5.40;;;18.10;99.90;;;;;;5124276;27;20040;-81
2022/05/10 01:28:08;;;;;;;7.22;5.25;;;18.10;99.90;;;;;;5123710;27;20151;-80
2022/05/10 01:31:00;;;;;;;;;;;;;;;;;;;;;
2022/05/10 01:33:48;;;;;;;;;;;;;;;;;;;;;
2022/05/10 01:36:32;;;;;;;6.75;4.35;;;18.00;99.90;;;;;;5153010;27;39528;-80
2022/05/10 01:39:46;;;;;;;6.50;4.38;;;17.80;99.90;;;;;;5132347;27;20519;-80
2022/05/10 01:45:43;;;;;;;11.85;4.38;;;18.10;99.90;;;;;;5152211;27;20043;-80
2022/05/10 01:48:30;;;;;;;;;;;;;;;;;;;;;
2022/05/10 01:51:18;;;;;;;8.68;5.57;;;18.00;99.90;;;;;;5151183;27;44492;-81
2022/05/10 01:53:56;;;;;;;8.50;4.93;;;18.00;99.90;;;;;;5130840;27;20451;-81
2022/05/10 01:56:28;;;;;;;8.93;4.88;;;17.00;99.90;;;;;;5150047;27;20031;-81
2022/05/10 01:59:00;;;;;;;10.48;5.88;;;18.00;99.90;;;;;;5135031;27;20085;-80
2022/05/10 02:01:42;;;;;;;7.75;5.35;;;18.00;99.90;;;;;;5133487;27;20590;-80
2022/05/10 02:04:16;;;;;;;8.65;5.55;;;18.00;99.90;;;;;;5151654;27;20111;-80
2022/05/10 02:07:16;;;;;;;8.57;5.47;;;18.00;99.90;;;;;;5135937;27;20038;-81
2022/05/10 02:10:21;;;;;;;7.07;4.30;;;18.00;99.90;;;;;;5133769;27;20067;-81
2022/05/10 02:13:02;;;;;;;7.30;4.65;;;17.90;99.90;;;;;;5128738;27;20047;-81
2022/05/10 02:15:39;;;;;;;9.93;4.82;;;17.90;99.90;;;;;;5134653;27;20617;-80
2022/05/10 02:18:17;;;;;;;8.05;6.05;;;17.90;99.90;;;;;;5128910;27;20528;-80
2022/05/10 02:21:24;;;;;;;8.30;5.40;;;17.90;99.90;;;;;;5135874;27;20485;-80
2022/05/10 02:24:30;;;;;;;6.55;4.35;;;18.10;99.90;;;;;;5124290;27;20107;-80
2022/05/10 02:27:21;;;;;;;7.90;4.68;;;17.80;99.90;;;;;;5134394;27;20043;-80
2022/05/10 02:30:46;;;;;;;6.72;4.90;;;17.80;99.90;;;;;;5131902;27;20626;-81
2022/05/10 02:33:42;;;;;;;8.23;4.78;;;17.80;99.90;;;;;;5110994;27;20044;-80
2022/05/10 02:36:29;;;;;;;7.88;5.85;;;17.70;99.90;;;;;;5124851;27;20517;-81
2022/05/10 02:39:05;;;;;;;6.63;4.53;;;18.30;99.90;;;;;;5129163;27;20150;-80
2022/05/10 02:41:51;;;;;;;;;;;;;;;;;;;;;
2022/05/10 02:44:23;;;;;;;8.65;4.57;;;17.00;99.90;;;;;;5128859;27;40364;-81
2022/05/10 02:46:49;;;;;;;7.22;4.82;;;17.70;99.90;;;;;;5129076;27;20050;-80
2022/05/10 02:49:16;;;;;;;6.55;4.55;;;17.70;99.90;;;;;;5126384;27;20047;-80
2022/05/10 02:51:42;;;;;;;6.10;4.25;;;17.70;99.90;;;;;;5130091;27;20035;-80
2022/05/10 02:54:08;;;;;;;8.68;4.80;;;17.70;99.90;;;;;;5126208;27;20043;-80
2022/05/10 02:56:33;;;;;;;8.15;5.07;;;17.70;99.90;;;;;;5128797;27;20390;-80
2022/05/10 02:59:20;;;;;;;6.47;4.57;;;17.60;99.90;;;;;;5131513;27;20517;-80
2022/05/10 03:02:39;;;;;;;6.55;4.70;;;17.60;99.90;;;;;;5129262;27;20570;-80
2022/05/10 03:05:07;;;;;;;7.38;4.95;;;17.60;99.90;;;;;;5130216;27;20056;-80
2022/05/10 03:07:32;;;;;;;7.38;5.15;;;17.50;99.90;;;;;;5129274;27;20826;-80
2022/05/10 03:09:58;;;;;;;8.57;5.85;;;17.50;99.90;;;;;;5131082;27;20050;-80
2022/05/10 03:12:24;;;;;;;11.43;5.55;;;17.50;99.90;;;;;;5127488;27;20061;-80
2022/05/10 03:14:50;;;;;;;5.85;4.57;;;17.50;99.90;;;;;;5128869;27;20134;-80
2022/05/10 03:17:16;;;;;;;8.73;4.78;;;17.50;99.90;;;;;;5129350;27;20051;-80
2022/05/10 03:19:52;;;;;;;8.50;5.05;;;17.50;99.90;;;;;;5130890;27;20714;-80
2022/05/10 03:22:25;;;;;;;8.43;4.88;;;17.40;99.90;;;;;;5130464;27;20039;-80
2022/05/10 03:25:13;;;;;;;10.13;4.63;;;17.40;99.90;;;;;;5130068;27;20079;-80
2022/05/10 03:27:42;;;;;;;8.02;4.75;;;17.30;99.90;;;;;;5132062;27;20622;-80
2022/05/10 03:33:21;;;;;;;7.85;4.63;;;17.40;99.90;;;;;;5134496;27;20096;-80
2022/05/10 03:35:52;;;;;;;8.07;5.35;;;17.40;99.90;;;;;;5125873;27;20045;-80
2022/05/10 03:38:33;;;;;;;7.63;4.80;;;17.70;99.90;;;;;;5129304;27;20043;-80
2022/05/10 03:41:30;;;;;;;;;;;;;;;;;;;;;
2022/05/10 03:44:17;;;;;;;10.55;5.38;;;17.40;99.90;;;;;;5129314;27;41112;-80
2022/05/10 03:47:01;;;;;;;9.00;6.43;;;17.40;99.90;;;;;;5109971;27;20074;-80
2022/05/10 03:49:49;;;;;;;8.82;5.20;;;17.40;99.90;;;;;;5112917;27;20528;-80
2022/05/10 03:52:27;;;;;;;8.57;4.90;;;17.50;99.90;;;;;;5110317;27;20043;-80
2022/05/10 03:55:12;;;;;;;9.73;7.07;;;17.50;99.90;;;;;;5108790;27;20043;-80
2022/05/10 03:57:55;;;;;;;10.70;6.20;;;17.50;99.90;;;;;;5113423;27;20065;-80
2022/05/10 04:00:48;;;;;;;10.93;6.50;;;17.50;99.90;;;;;;5129086;27;20458;-80
2022/05/10 04:03:19;;;;;;;10.45;6.88;;;17.40;99.90;;;;;;5113876;27;20055;-80
2022/05/10 04:06:11;;;;;;;;;;;;;;;;;;;;;
2022/05/10 04:08:45;;;;;;;10.85;7.28;;;17.50;99.90;;;;;;5129592;27;40421;-80
2022/05/10 04:11:40;;;;;;;9.30;6.50;;;17.70;99.90;;;;;;5124724;27;20047;-80
2022/05/10 04:14:18;;;;;;;13.10;6.88;;;17.60;99.90;;;;;;5111495;27;20488;-80
2022/05/10 04:16:53;;;;;;;10.27;6.60;;;17.60;99.90;;;;;;5109319;27;20100;-81
2022/05/10 04:22:19;;;;;;;9.98;6.72;;;17.60;99.90;;;;;;5128472;27;20065;-80
2022/05/10 04:25:07;;;;;;;9.05;6.50;;;17.60;99.90;;;;;;5107098;27;20061;-80
2022/05/10 04:27:56;;;;;;;11.40;7.05;;;17.60;99.90;;;;;;5103576;27;20408;-80
2022/05/10 04:30:35;;;;;;;9.57;5.68;;;17.30;99.90;;;;;;5108354;27;20289;-81
2022/05/10 04:33:04;;;;;;;13.95;7.18;;;17.50;99.90;;;;;;5129555;27;20122;-80
2022/05/10 04:35:41;;;;;;;10.60;7.03;;;17.60;99.90;;;;;;5110038;27;20479;-80
2022/05/10 04:38:18;;;;;;;;;;;;;;;;;;;;;
2022/05/10 04:43:39;;;;;;;10.20;6.55;;;17.40;99.90;;;;;;5132857;27;20723;-79
2022/05/10 04:46:23;;;;;;;9.98;6.10;;;17.30;99.90;;;;;;5124089;27;20911;-80
2022/05/10 04:49:01;;;;;;;9.15;5.40;;;17.50;99.90;;;;;;5130726;27;20531;-80
2022/05/10 04:51:43;;;;;;;8.70;5.63;;;17.50;99.90;;;;;;5105607;27;20079;-80
2022/05/10 04:54:39;;;;;;;12.02;7.38;;;17.50;99.90;;;;;;5113422;27;20050;-80
2022/05/10 04:57:28;;;;;;;11.75;6.40;;;17.50;99.90;;;;;;5111315;27;20082;-81
2022/05/10 05:00:13;;;;;;;10.02;5.95;;;17.50;99.90;;;;;;5133657;27;20521;-81
2022/05/10 05:02:51;;;;;;;11.77;6.40;;;17.70;99.90;;;;;;5130631;27;20366;-80
2022/05/10 05:05:49;;;;;;;8.70;6.22;;;17.80;99.90;;;;;;5109849;27;20035;-81
2022/05/10 05:08:19;;;;;;;8.88;5.93;;;17.60;99.90;;;;;;5112276;27;20055;-80
2022/05/10 05:10:48;;;;;;;11.20;6.05;;;17.10;99.90;;;;;;5127156;27;20138;-80
2022/05/10 05:13:30;;;;;;;10.40;5.68;;;17.60;99.90;;;;;;5118485;27;20056;-82
2022/05/10 05:16:02;;;;;;;9.48;5.85;;;17.80;99.90;;;;;;5105594;27;20588;-83
2022/05/10 05:18:50;;;;;;;;;;;17.60;99.90;;;;;;5130675;27;20043;-78
2022/05/10 05:21:32;;;;;;;8.60;5.50;;;17.60;99.90;;;;;;5111796;27;19922;-78
2022/05/10 05:24:01;;;;;;;10.13;6.55;;;17.60;99.90;;;;;;5114215;27;21122;-79
2022/05/10 05:26:35;;;;;;;12.85;6.47;;;17.60;99.90;;;;;;5103095;27;20183;-78
2022/05/10 05:29:01;;;;;;;7.10;5.25;;;17.70;99.90;;;;;;5123359;27;20528;-78
2022/05/10 05:31:42;;;;;;;11.43;7.13;;;17.20;99.90;;;;;;5108214;27;20047;-80
2022/05/10 05:34:24;;;;;;;9.53;5.87;;;17.70;99.90;;;;;;5112533;27;20106;-79
2022/05/10 05:39:50;;;;;;;8.35;4.78;;;17.80;99.90;;;;;;5116560;27;20058;-79
2022/05/10 05:42:19;;;;;;;10.10;6.35;;;17.80;99.90;;;;;;5111590;27;20081;-79
2022/05/10 05:44:48;;;;;;;9.02;5.60;;;17.80;99.90;;;;;;5112789;27;20043;-79
2022/05/10 05:47:24;;;;;;;12.10;6.30;;;17.90;99.90;;;;;;5113664;27;20039;-78
2022/05/10 05:49:53;;;;;;;9.35;5.68;;;17.90;99.90;;;;;;5102854;27;20075;-78
2022/05/10 05:52:22;;;;;;;10.40;7.00;;;17.70;99.90;;;;;;5119779;27;20040;-78
2022/05/10 05:54:52;;;;;;;11.88;6.20;;;18.00;99.90;;;;;;5110171;27;20071;-78
2022/05/10 05:57:19;;;;;;;11.13;6.50;;;17.90;99.90;;;;;;5112838;27;20123;-78
2022/05/10 05:59:48;;;;;;;12.45;7.57;;;18.00;99.90;;;;;;5111259;27;20067;-79
2022/05/10 06:02:19;;;;;;;8.90;6.20;;;18.10;99.90;;;;;;5110715;27;20046;-79
2022/05/10 06:05:00;;;;;;;5.80;5.05;;;17.70;99.90;;;;;;5109080;27;20132;-79
2022/05/10 06:07:28;;;;;;;8.10;5.72;;;18.20;99.90;;;;;;5108565;27;20050;-79
2022/05/10 06:09:57;;;;;;;11.25;6.57;;;18.50;99.90;;;;;;5107604;27;20079;-79
2022/05/10 06:12:26;;;;;;;8.00;5.47;;;18.20;99.90;;;;;;5107225;27;21274;-79
2022/05/10 06:14:55;;;;;;;9.52;5.97;;;18.30;99.90;;;;;;5106882;27;20039;-80
2022/05/10 06:17:30;;;;;;;10.40;5.82;;;18.30;99.90;;;;;;5110165;27;20051;-80
2022/05/10 06:20:21;;;;;;;10.93;5.63;;;18.40;99.90;;;;;;5111730;27;20054;-78
2022/05/10 06:22:54;;;;;;;8.90;5.30;;;18.20;99.90;;;;;;5110991;27;20052;-79
2022/05/10 06:25:23;;;;;;;12.98;5.63;;;18.30;99.90;;;;;;5109436;27;20055;-79
2022/05/10 06:28:02;;;;;;;11.77;6.20;;;18.40;99.90;;;;;;5110807;27;20150;-79
2022/05/10 06:30:36;;;;;;;10.63;5.72;;;18.40;99.90;;;;;;5111228;27;20669;-79
2022/05/10 06:33:04;;;;;;;8.50;6.15;;;18.90;99.90;;;;;;5112347;27;20042;-78
2022/05/10 06:35:33;;;;;;;9.90;5.47;;;18.50;99.90;;;;;;5113108;27;20047;-79
2022/05/10 06:38:19;;;;;;;9.80;5.63;;;18.50;99.90;;;;;;5116512;27;20122;-81
2022/05/10 06:40:50;;;;;;;8.60;5.72;;;18.60;99.90;;;;;;5125490;27;20556;-78
2022/05/10 06:43:25;;;;;;;7.65;5.25;;;18.60;99.90;;;;;;5136934;27;20039;-78
2022/05/10 06:45:51;;;;;;;13.65;6.05;;;18.70;99.90;;;;;;5137553;27;20439;-78
2022/05/10 06:48:17;;;;;;;9.75;5.60;;;18.70;99.90;;;;;;5127957;27;20051;-78
2022/05/10 06:50:43;;;;;;;8.93;5.47;;;18.80;99.90;;;;;;5135581;27;20039;-78
2022/05/10 06:53:11;;;;;;;8.30;5.55;;;18.80;99.90;;;;;;5116567;27;21456;-78
2022/05/10 06:55:38;;;;;;;15.38;6.20;;;18.70;99.90;;;;;;5117221;27;20035;-78
2022/05/10 06:58:05;;;;;;;9.27;6.47;;;18.70;99.90;;;;;;5132168;27;20082;-78
2022/05/10 07:00:36;;;;;;;19.35;7.78;;;18.70;99.90;;;;;;5116550;27;20043;-78
2022/05/10 07:03:11;;;;;;;13.43;7.00;;;18.60;99.90;;;;;;5135438;27;20050;-78
2022/05/10 07:05:37;;;;;;;22.67;8.10;;;18.60;99.90;;;;;;5136037;27;20069;-78
2022/05/10 07:08:03;;;;;;;17.42;8.50;;;18.60;99.90;;;;;;5134338;27;20101;-78
2022/05/10 07:10:31;;;;;;;13.50;9.57;;;18.60;99.90;;;;;;5134420;27;20561;-78
2022/05/10 07:12:58;;;;;;;11.02;7.55;;;18.50;99.90;;;;;;5135500;27;20455;-78
2022/05/10 07:15:24;;;;;;;13.25;7.03;;;18.50;99.90;;;;;;5133262;27;20046;-78
2022/05/10 07:17:50;;;;;;;10.38;7.28;;;18.60;99.90;;;;;;5116256;27;20039;-78
2022/05/10 07:20:17;;;;;;;9.32;5.95;;;18.60;99.90;;;;;;5117569;27;20535;-78
2022/05/10 07:22:44;;;;;;;10.32;7.38;;;18.60;99.90;;;;;;5133648;27;20039;-78
2022/05/10 07:25:17;;;;;;;10.32;6.15;;;18.70;99.90;;;;;;5134372;27;20146;-77
2022/05/10 07:27:44;;;;;;;8.15;6.18;;;18.70;99.90;;;;;;5134638;27;20036;-78
2022/05/10 07:30:12;;;;;;;11.32;7.05;;;18.90;99.90;;;;;;5116940;27;20671;-78
2022/05/10 07:32:38;;;;;;;11.05;5.70;;;18.90;99.90;;;;;;5134602;27;20042;-78
2022/05/10 07:35:04;;;;;;;6.90;5.10;;;19.10;99.90;;;;;;5136167;27;20812;-78
2022/05/10 07:37:33;;;;;;;7.32;5.00;;;19.10;99.90;;;;;;5134168;27;20067;-78
2022/05/10 07:40:00;;;;;;;6.63;5.05;;;19.20;99.90;;;;;;5136485;27;20031;-78
2022/05/10 07:42:26;;;;;;;6.10;4.80;;;19.20;99.90;;;;;;5116692;27;20184;-78
2022/05/10 07:44:51;;;;;;;6.88;5.05;;;19.30;99.90;;;;;;5134423;27;20636;-78
2022/05/10 07:47:18;;;;;;;9.05;6.22;;;19.30;99.90;;;;;;5135248;27;20050;-78
2022/05/10 07:49:44;;;;;;;8.32;4.35;;;19.30;99.90;;;;;;5114964;27;20536;-78
2022/05/10 07:52:10;;;;;;;8.48;5.80;;;19.30;99.90;;;;;;5126070;27;20039;-78
2022/05/10 07:54:36;;;;;;;8.05;5.55;;;19.30;99.90;;;;;;5135739;27;20409;-78
2022/05/10 07:57:03;;;;;;;6.38;4.53;;;19.40;99.90;;;;;;5117375;27;20054;-78
2022/05/10 07:59:31;;;;;;;6.68;5.30;;;19.40;99.90;;;;;;5116270;27;20043;-78
2022/05/10 08:01:57;;;;;;;10.15;4.78;;;19.40;99.90;;;;;;5115698;27;20043;-78
2022/05/10 08:04:23;;;;;;;7.38;4.80;;;19.50;99.90;;;;;;5133950;27;20043;-78
2022/05/10 08:06:50;;;;;;;7.05;5.10;;;19.60;99.90;;;;;;5126106;27;20888;-78
2022/05/10 08:09:15;;;;;;;8.30;4.60;;;19.60;99.90;;;;;;5116319;27;20035;-80
2022/05/10 08:11:43;;;;;;;5.68;4.13;;;19.70;99.90;;;;;;5133308;27;20051;-79
2022/05/10 08:14:09;;;;;;;4.82;4.20;;;19.60;99.90;;;;;;5108704;27;20039;-79
2022/05/10 08:16:35;;;;;;;6.47;4.00;;;19.60;99.90;;;;;;5133273;27;20086;-79
2022/05/10 08:19:01;;;;;;;9.65;5.00;;;19.70;99.90;;;;;;5132685;27;20043;-79
2022/05/10 08:21:27;;;;;;;6.47;4.38;;;19.70;99.90;;;;;;5133427;27;20035;-79
2022/05/10 08:23:55;;;;;;;8.60;4.85;;;19.70;99.90;;;;;;5125102;27;21177;-79
2022/05/10 08:26:22;;;;;;;8.32;4.00;;;19.70;99.90;;;;;;5115078;27;20043;-79
2022/05/10 08:28:48;;;;;;;7.88;4.72;;;19.70;99.90;;;;;;5106889;27;20045;-79
2022/05/10 08:31:14;;;;;;;7.82;4.32;;;19.70;99.90;;;;;;5132091;27;20115;-79
2022/05/10 08:33:42;;;;;;;6.10;3.80;;;19.70;99.90;;;;;;5132130;27;20049;-79
2022/05/10 08:36:09;;;;;;;14.80;4.75;;;19.60;99.90;;;;;;5133649;27;20118;-79
2022/05/10 08:38:35;;;;;;;7.05;4.95;;;19.50;99.90;;;;;;5114441;27;20516;-78
2022/05/10 08:41:01;;;;;;;6.45;4.07;;;19.50;99.90;;;;;;5133601;27;20035;-79
2022/05/10 08:43:55;;;;;;;5.85;3.60;;;19.50;99.90;;;;;;5106851;27;20039;-79
2022/05/10 08:46:37;;;;;;;4.57;3.40;;;19.50;99.90;;;;;;5133079;27;20327;-79
2022/05/10 08:49:12;;;;;;;7.05;3.92;;;19.50;99.90;;;;;;5132899;27;20043;-79
2022/05/10 08:51:37;;;;;;;5.63;3.78;;;19.50;99.90;;;;;;5132958;27;20576;-79
2022/05/10 08:54:03;;;;;;;6.82;4.13;;;19.50;99.90;;;;;;5131987;27;20186;-79
2022/05/10 08:56:35;;;;;;;4.93;3.30;;;19.50;99.90;;;;;;5125412;27;20046;-79
2022/05/10 09:02:28;;;;;;;5.75;3.80;;;19.70;99.90;;;;;;5131849;27;20573;-79
2022/05/10 09:05:14;;;;;;;6.65;3.72;;;19.80;99.90;;;;;;5105979;27;20126;-79
2022/05/10 09:07:44;;;;;;;8.60;4.18;;;19.90;99.90;;;;;;5123438;27;20055;-79
2022/05/10 09:10:20;;;;;;;10.40;4.57;;;20.00;99.90;;;;;;5120241;27;20042;-80
2022/05/10 09:13:13;;;;;;;8.38;4.50;;;20.10;99.90;;;;;;5126388;27;20423;-79
2022/05/10 09:16:13;;;;;;;8.00;4.10;;;20.10;99.90;;;;;;5103182;27;20039;-79
2022/05/10 09:19:13;;;;;;;4.30;3.05;;;20.00;99.90;;;;;;5104907;27;20047;-80
2022/05/10 09:22:04;;;;;;;6.63;3.38;;;20.10;99.90;;;;;;5112260;27;20047;-80
2022/05/10 09:25:11;;;;;;;;;;;;;;;;;;;;;
2022/05/10 09:28:03;;;;;;;8.85;3.88;;;20.30;99.90;;;;;;5128404;27;39468;-82
2022/05/10 09:36:51;;;;;;;4.47;2.80;;;20.40;99.90;;;;;;5133700;27;20233;-80
2022/05/10 09:39:57;;;;;;;5.15;3.50;;;20.40;99.90;;;;;;5113882;27;21074;-79
2022/05/10 09:42:44;;;;;;;6.70;3.85;;;20.40;99.90;;;;;;5109032;27;20054;-79
2022/05/10 09:45:54;;;;;;;5.93;3.13;;;20.60;99.90;;;;;;5110513;27;20128;-80
2022/05/10 09:48:47;;;;;;;;;;;;;;;;;;;;;
2022/05/10 09:51:39;;;;;;;10.15;2.55;;;20.50;99.90;;;;;;5132502;27;40342;-80
2022/05/10 09:54:56;;;;;;;4.50;2.25;;;20.50;99.90;;;;;;5107618;27;22060;-80
2022/05/10 09:57:42;;;;;;;7.07;2.83;;;20.00;99.90;;;;;;5042888;28;21223;-81
2022/05/10 10:00:52;;;;;;;4.18;2.90;;;20.60;99.90;;;;;;5070378;27;20047;-81
2022/05/10 10:03:34;;;;;;;4.32;2.70;;;20.70;99.90;;;;;;5097001;27;20051;-78
2022/05/10 10:06:25;;;;;;;3.88;2.42;;;20.70;99.90;;;;;;5131984;27;20054;-79
2022/05/10 10:09:19;;;;;;;6.78;3.55;;;20.80;99.90;;;;;;5109737;27;20047;-80
2022/05/10 10:11:57;;;;;;;3.85;2.78;;;20.90;99.90;;;;;;5113611;27;20134;-79
2022/05/10 10:14:42;;;;;;;5.18;3.00;;;20.80;99.90;;;;;;5127589;27;20042;-80
2022/05/10 10:17:40;;;;;;;5.72;2.53;;;20.70;99.90;;;;;;5131101;27;20039;-79
2022/05/10 10:20:31;;;;;;;4.05;3.03;;;20.40;99.90;;;;;;5131303;27;20043;-80
2022/05/10 10:23:44;;;;;;;3.72;2.47;;;20.70;99.90;;;;;;5127265;27;20046;-80
2022/05/10 10:26:32;;;;;;;5.03;2.78;;;20.80;99.90;;;;;;5111205;27;20046;-80
2022/05/10 10:29:43;;;;;;;9.35;2.50;;;20.80;99.90;;;;;;5062753;28;20583;-79
2022/05/10 10:32:32;;;;;;;4.80;2.45;;;20.90;99.90;;;;;;4995404;28;20059;-80
2022/05/10 10:35:24;;;;;;;4.20;2.67;;;20.90;99.90;;;;;;5000413;28;20051;-79
2022/05/10 10:38:15;;;;;;;4.55;3.05;;;21.00;99.90;;;;;;5055852;28;20123;-80
2022/05/10 10:41:08;;;;;;;4.57;2.30;;;21.00;99.90;;;;;;5048355;28;20559;-80
2022/05/10 10:46:28;;;;;;;4.07;2.70;;;21.00;99.90;;;;;;5043034;28;38841;-79
2022/05/10 10:49:09;;;;;;;7.80;2.88;;;21.10;99.90;;;;;;5062536;28;20064;-78
2022/05/10 10:51:42;;;;;;;3.65;2.65;;;21.20;99.90;;;;;;5064060;28;20080;-79
2022/05/10 10:54:20;;;;;;;4.15;2.72;;;21.20;99.90;;;;;;5090671;27;20039;-79
2022/05/10 10:56:46;;;;;;;4.55;2.72;;;21.20;99.90;;;;;;5138404;27;20096;-79
2022/05/10 10:59:50;;;;;;;5.28;3.40;;;21.30;99.90;;;;;;5117872;27;20059;-79
2022/05/10 11:02:26;;;;;;;4.95;3.03;;;21.30;99.90;;;;;;5110769;27;20615;-79
2022/05/10 11:05:12;;;;;;;4.22;2.45;;;21.40;99.90;;;;;;5118831;27;20095;-79
2022/05/10 11:08:18;;;;;;;5.15;2.92;;;21.50;99.90;;;;;;5109506;27;20144;-79
2022/05/10 11:11:21;;;;;;;3.10;2.50;;;21.50;99.90;;;;;;5136098;27;20043;-80
2022/05/10 11:14:22;;;;;;;6.07;3.15;;;21.50;99.90;;;;;;5135019;27;20075;-79
2022/05/10 11:16:59;;;;;;;3.90;2.63;;;21.60;99.90;;;;;;5136669;27;20089;-79
2022/05/10 11:19:41;;;;;;;7.65;3.05;;;21.70;99.90;;;;;;5116197;27;20047;-79
2022/05/10 11:22:41;;;;;;;5.80;3.05;;;21.80;99.90;;;;;;5138156;27;20042;-79
2022/05/10 11:25:58;;;;;;;4.93;2.80;;;21.90;99.70;;;;;;5116613;27;20524;-79
2022/05/10 11:29:00;;;;;;;3.47;2.15;;;22.10;99.60;;;;;;5118095;27;20104;-79
2022/05/10 11:31:40;;;;;;;5.68;2.88;;;22.30;98.90;;;;;;5109579;27;20824;-80
2022/05/10 11:34:23;;;;;;;4.07;2.50;;;22.40;98.60;;;;;;5109810;27;20052;-79
2022/05/10 11:37:02;;;;;;;4.25;2.50;;;22.30;98.40;;;;;;5110707;27;20050;-80
2022/05/10 11:40:01;;;;;;;3.22;2.40;;;22.30;98.20;;;;;;5117186;27;20047;-79
2022/05/10 11:43:07;;;;;;;6.90;3.22;;;22.10;98.00;;;;;;5110160;27;20028;-79
2022/05/10 11:45:58;;;;;;;3.63;2.20;;;22.40;97.60;;;;;;5110412;27;20055;-79
2022/05/10 11:49:04;;;;;;;4.18;2.28;;;22.30;97.20;;;;;;5109298;27;20052;-79
2022/05/10 11:52:05;;;;;;;3.28;2.10;;;22.60;97.00;;;;;;5116094;27;20074;-80
2022/05/10 11:54:42;;;;;;;4.20;2.60;;;22.70;96.70;;;;;;5053730;27;20093;-79
2022/05/10 11:57:35;;;;;;;4.85;2.67;;;22.70;96.70;;;;;;5134624;27;20046;-79
2022/05/10 12:00:37;;;;;;;4.05;2.80;;;22.70;96.40;;;;;;5131702;27;20107;-81
2022/05/10 12:03:44;;;;;;;4.20;2.63;;;22.60;96.20;;;;;;5134740;27;20036;-78
2022/05/10 12:09:38;;;;;;;6.55;2.35;;;22.60;96.00;;;;;;5116950;27;20419;-78
2022/05/10 12:12:07;;;;;;;6.30;2.90;;;22.90;96.00;;;;;;5134833;27;20283;-79
2022/05/10 12:21:48;;;;;;;4.95;2.60;;;22.60;95.90;;;;;;5135097;27;20051;-79
2022/05/10 12:24:25;;;;;;;3.97;2.45;;;22.80;95.80;;;;;;5110958;27;20166;-79
2022/05/10 12:27:23;;;;;;;3.05;2.20;;;22.80;95.50;;;;;;5116955;27;20047;-80
2022/05/10 12:30:13;;;;;;;3.50;2.38;;;22.90;95.20;;;;;;5109667;27;20043;-79
2022/05/10 12:32:57;;;;;;;4.10;2.92;;;23.00;95.10;;;;;;5109664;27;20769;-79
2022/05/10 12:35:46;;;;;;;3.67;2.53;;;23.00;94.80;;;;;;5125316;27;20045;-79
2022/05/10 12:38:44;;;;;;;2.90;1.83;;;23.10;94.70;;;;;;5108914;27;21018;-79
2022/05/10 12:41:42;;;;;;;3.35;2.30;;;23.10;94.40;;;;;;5131245;27;20885;-79
2022/05/10 12:44:40;;;;;;;3.50;2.35;;;23.00;94.30;;;;;;5131027;27;20043;-79
2022/05/10 12:47:40;;;;;;;3.50;2.70;;;23.00;94.00;;;;;;5070770;27;20052;-79
2022/05/10 12:53:38;;;;;;;5.43;2.67;;;22.80;93.80;;;;;;5132651;27;20039;-79
2022/05/10 12:59:28;;;;;;;6.35;3.78;;;23.10;93.60;;;;;;5130155;27;20118;-79
2022/05/10 13:02:08;;;;;;;4.55;2.63;;;23.10;93.60;;;;;;5113490;27;20059;-78
2022/05/10 13:04:54;;;;;;;3.45;2.30;;;23.20;93.30;;;;;;5113754;27;20039;-79
2022/05/10 13:08:34;;;;;;;4.93;2.95;;;23.40;93.20;;;;;;5132549;27;20088;-78
2022/05/10 13:11:08;;;;;;;4.20;2.40;;;23.50;93.00;;;;;;5111179;27;20044;-79
2022/05/10 13:13:39;;;;;;;5.28;2.78;;;23.30;92.90;;;;;;5109063;27;20047;-79
2022/05/10 13:16:20;;;;;;;3.63;2.37;;;23.20;93.00;;;;;;5136693;27;20061;-79
2022/05/10 13:18:56;;;;;;;3.50;2.33;;;23.20;93.10;;;;;;5117233;27;20049;-79
2022/05/10 13:21:37;;;;;;;3.60;2.28;;;23.20;93.00;;;;;;5118043;27;20034;-79
2022/05/10 13:24:21;;;;;;;3.08;2.08;;;23.20;92.90;;;;;;5109402;27;20681;-79
2022/05/10 13:26:55;;;;;;;4.45;2.20;;;23.40;92.90;;;;;;5135313;27;20101;-78
2022/05/10 13:29:39;;;;;;;4.68;2.45;;;23.30;92.80;;;;;;5110616;27;20046;-78
2022/05/10 13:32:25;;;;;;;4.47;2.97;;;23.30;92.80;;;;;;5117984;27;20043;-79
2022/05/10 13:35:02;;;;;;;3.90;2.30;;;23.40;92.90;;;;;;5129929;27;20926;-78
2022/05/10 13:37:36;;;;;;;3.88;2.55;;;23.30;92.80;;;;;;5132117;27;20712;-79
2022/05/10 13:40:53;;;;;;;4.78;2.95;;;23.40;92.50;;;;;;5114442;27;20044;-80
2022/05/10 13:43:52;;;;;;;4.20;2.40;;;23.40;92.10;;;;;;5100983;27;20055;-80
2022/05/10 13:46:23;;;;;;;5.68;2.55;;;23.50;92.10;;;;;;5115027;27;20111;-80
2022/05/10 13:52:23;;;;;;;10.07;3.40;;;23.70;91.90;;;;;;5112135;27;20089;-79
2022/05/10 13:55:15;;;;;;;4.47;2.70;;;23.70;91.80;;;;;;5110408;27;20077;-80
2022/05/10 13:57:59;;;;;;;4.28;2.40;;;23.80;91.80;;;;;;5111893;27;20066;-80
2022/05/10 14:00:47;;;;;;;4.15;2.60;;;23.80;91.50;;;;;;5116537;27;20531;-79
2022/05/10 14:03:28;;;;;;;;;;;;;;;;;;;;;
2022/05/10 14:06:14;;;;;;;7.00;2.47;;;24.00;91.50;;;;;;5117511;27;44898;-80
2022/05/10 14:12:09;;;;;;;4.65;3.03;;;24.20;91.00;;;;;;5110322;27;20537;-79
2022/05/10 14:14:45;;;;;;;3.05;2.03;;;24.20;90.70;;;;;;5110171;27;20047;-79
2022/05/10 14:17:46;;;;;;;3.65;2.70;;;24.20;90.80;;;;;;5114670;27;20060;-79
2022/05/10 14:20:23;;;;;;;7.78;2.58;;;24.10;90.60;;;;;;5071287;27;20134;-79
2022/05/10 14:23:02;;;;;;;4.30;2.65;;;24.10;90.40;;;;;;5116996;27;20043;-79
2022/05/10 14:25:34;;;;;;;4.93;2.80;;;24.00;90.40;;;;;;5116377;27;21178;-79
2022/05/10 14:28:40;;;;;;;4.10;2.38;;;24.20;90.30;;;;;;5114644;27;20534;-80
2022/05/10 14:31:49;;;;;;;3.08;2.17;;;24.20;90.10;;;;;;5115762;27;20523;-79
2022/05/10 14:35:04;;;;;;;3.45;2.42;;;23.60;89.60;;;;;;5132819;27;20067;-79
2022/05/10 14:37:51;;;;;;;4.43;2.33;;;24.40;90.10;;;;;;5114024;27;21256;-80
2022/05/10 14:40:58;;;;;;;5.75;2.50;;;24.10;90.10;;;;;;5117328;27;20521;-79
2022/05/10 14:43:38;;;;;;;7.43;2.67;;;24.20;89.70;;;;;;5110449;27;20047;-79
2022/05/10 14:46:35;;;;;;;7.53;3.38;;;24.20;89.30;;;;;;5111050;27;20089;-79
2022/05/10 14:49:16;;;;;;;4.65;2.70;;;24.20;89.10;;;;;;5108922;27;20043;-80
2022/05/10 14:51:46;;;;;;;5.03;2.78;;;24.40;89.00;;;;;;5114803;27;20079;-80
2022/05/10 14:54:40;;;;;;;3.28;2.25;;;24.50;89.00;;;;;;5116612;27;20097;-80
2022/05/10 14:57:42;;;;;;;3.50;2.40;;;24.50;88.40;;;;;;5114299;27;20507;-79
2022/05/10 15:00:40;;;;;;;10.75;2.70;;;24.50;88.60;;;;;;5131124;27;20453;-79
2022/05/10 15:03:29;;;;;;;5.13;2.85;;;24.50;88.60;;;;;;5114602;27;20048;-79
2022/05/10 15:06:30;;;;;;;3.90;2.60;;;24.40;88.00;;;;;;5115426;27;20070;-79
2022/05/10 15:09:21;;;;;;;7.10;2.80;;;24.50;87.60;;;;;;5088378;27;20076;-80
2022/05/10 15:15:05;;;;;;;3.92;2.55;;;24.70;87.50;;;;;;5117429;27;20262;-79